createdAt,value
2023-04-03T00:01:17.235Z,5.00
2023-04-03T00:04:05.712Z,5.00
2023-04-03T00:06:53.391Z,5.10
2023-04-03T00:09:41.242Z,5.10
2023-04-03T00:12:28.898Z,5.10
2023-04-03T00:15:16.826Z,5.10
2023-04-03T00:18:04.854Z,5.00
2023-04-03T00:20:52.579Z,5.10
2023-04-03T00:23:40.291Z,5.10
2023-04-03T00:26:27.829Z,5.20
2023-04-03T00:29:15.620Z,5.20
2023-04-03T00:32:03.504Z,5.20
2023-04-03T00:34:51.131Z,5.20
2023-04-03T00:37:38.998Z,5.20
2023-04-03T00:40:27.923Z,5.30
2023-04-03T00:43:27.419Z,5.40
2023-04-03T00:46:15.211Z,5.40
2023-04-03T00:49:03.088Z,5.40
2023-04-03T00:51:50.887Z,5.20
2023-04-03T00:54:39.476Z,5.20
2023-04-03T00:57:28.749Z,5.20
2023-04-03T01:00:20.162Z,5.10
2023-04-03T01:03:07.932Z,5.10
2023-04-03T01:05:56.046Z,5.20
2023-04-03T01:08:44.103Z,5.20
2023-04-03T01:11:31.869Z,5.10
2023-04-03T01:14:19.784Z,5.10
2023-04-03T01:17:31.500Z,5.20
2023-04-03T01:20:37.864Z,5.10
2023-04-03T01:23:33.886Z,5.10
2023-04-03T01:26:22.362Z,4.90
2023-04-03T01:29:10.169Z,5.00
2023-04-03T01:32:00.959Z,5.10
2023-04-03T01:34:48.523Z,5.00
2023-04-03T01:37:36.151Z,4.90
2023-04-03T01:40:23.670Z,4.90
2023-04-03T01:43:11.463Z,4.80
2023-04-03T01:45:59.228Z,4.90
2023-04-03T01:48:47.305Z,4.90
2023-04-03T01:51:35.044Z,4.90
2023-04-03T01:54:22.515Z,5.00
2023-04-03T01:57:10.097Z,4.90
2023-04-03T01:59:57.826Z,4.90
2023-04-03T02:02:45.407Z,5.00
2023-04-03T02:05:33.103Z,5.00
2023-04-03T02:08:23.863Z,5.00
2023-04-03T02:11:11.352Z,5.20
2023-04-03T02:13:58.893Z,5.10
2023-04-03T02:16:46.534Z,5.20
2023-04-03T02:19:34.350Z,5.20
2023-04-03T02:22:24.987Z,5.00
2023-04-03T02:25:13.561Z,5.00
2023-04-03T02:28:01.219Z,4.90
2023-04-03T02:30:48.805Z,4.80
2023-04-03T02:33:39.910Z,4.90
2023-04-03T02:36:27.905Z,4.90
2023-04-03T02:39:15.821Z,5.00
2023-04-03T02:42:05.509Z,4.90
2023-04-03T02:44:53.222Z,4.90
2023-04-03T02:47:40.886Z,4.80
2023-04-03T02:50:28.445Z,4.80
2023-04-03T02:53:16.335Z,4.70
2023-04-03T02:56:04.004Z,4.70
2023-04-03T02:58:51.609Z,4.60
2023-04-03T03:01:40.873Z,4.50
2023-04-03T03:04:28.483Z,4.40
2023-04-03T03:07:16.075Z,4.30
2023-04-03T03:10:03.798Z,4.20
2023-04-03T03:12:51.806Z,4.10
2023-04-03T03:15:39.279Z,4.10
2023-04-03T03:18:27.056Z,4.10
2023-04-03T03:21:14.974Z,4.20
2023-04-03T03:24:02.659Z,4.10
2023-04-03T03:26:50.749Z,4.00
2023-04-03T03:29:38.351Z,4.00
2023-04-03T03:32:29.377Z,4.00
2023-04-03T03:35:17.213Z,4.00
2023-04-03T03:38:04.989Z,4.00
2023-04-03T03:40:53.301Z,3.80
2023-04-03T03:43:41.203Z,3.80
2023-04-03T03:46:28.878Z,3.70
2023-04-03T03:49:16.528Z,3.70
2023-04-03T03:52:04.378Z,3.70
2023-04-03T03:54:55.147Z,3.70
2023-04-03T03:57:42.831Z,3.70
2023-04-03T04:00:30.674Z,3.60
2023-04-03T04:03:18.469Z,3.50
2023-04-03T04:06:06.288Z,3.40
2023-04-03T04:08:53.989Z,3.40
2023-04-03T04:11:41.987Z,3.50
2023-04-03T04:14:30.028Z,3.30
2023-04-03T04:17:18.079Z,3.30
2023-04-03T04:20:06.133Z,3.20
2023-04-03T04:22:53.663Z,3.20
2023-04-03T04:25:41.474Z,3.20
2023-04-03T04:28:29.207Z,3.10
2023-04-03T04:31:16.760Z,3.00
2023-04-03T04:34:04.286Z,2.90
2023-04-03T04:36:51.920Z,2.90
2023-04-03T04:39:39.548Z,3.00
2023-04-03T04:42:27.240Z,2.90
2023-04-03T04:45:16.012Z,2.80
2023-04-03T04:48:03.971Z,2.70
2023-04-03T04:50:51.557Z,2.80
2023-04-03T04:53:39.362Z,2.70
2023-04-03T04:56:27.252Z,2.60
2023-04-03T04:59:14.692Z,2.50
2023-04-03T05:02:02.428Z,2.60
2023-04-03T05:04:51.398Z,2.60
2023-04-03T05:07:39.128Z,2.60
2023-04-03T05:10:26.740Z,2.60
2023-04-03T05:13:14.966Z,2.60
2023-04-03T05:16:03.046Z,2.60
2023-04-03T05:18:50.789Z,2.60
2023-04-03T05:21:38.328Z,2.60
2023-04-03T05:24:27.192Z,2.60
2023-04-03T05:27:14.996Z,2.60
2023-04-03T05:30:03.163Z,2.70
2023-04-03T05:32:50.818Z,3.00
2023-04-03T05:35:42.823Z,3.90
2023-04-03T05:38:33.243Z,4.80
2023-04-03T05:41:22.112Z,5.10
2023-04-03T05:44:10.325Z,5.80
2023-04-03T05:47:10.795Z,6.10
2023-04-03T05:50:01.820Z,6.50
2023-04-03T05:52:54.743Z,6.60
2023-04-03T05:55:45.923Z,6.70
2023-04-03T05:58:36.237Z,6.70
2023-04-03T06:01:24.637Z,6.50
2023-04-03T06:04:12.539Z,7.30
2023-04-03T06:07:17.350Z,7.90
2023-04-03T06:10:08.985Z,8.20
2023-04-03T06:12:57.169Z,8.70
2023-04-03T06:15:45.528Z,8.90
2023-04-03T06:18:53.101Z,8.70
2023-04-03T06:21:41.330Z,8.10
2023-04-03T06:24:33.837Z,8.50
2023-04-03T06:27:22.041Z,8.50
2023-04-03T06:30:11.724Z,9.10
2023-04-03T06:33:06.068Z,9.00
2023-04-03T06:36:02.410Z,8.90
2023-04-03T06:38:50.452Z,9.00
2023-04-03T06:41:38.185Z,8.90
2023-04-03T06:44:25.906Z,9.00
2023-04-03T06:47:16.164Z,9.40
2023-04-03T06:50:04.092Z,9.90
2023-04-03T06:52:51.834Z,9.30
2023-04-03T06:55:40.294Z,10.40
2023-04-03T06:58:28.634Z,10.50
2023-04-03T07:01:17.811Z,11.40
2023-04-03T07:04:08.210Z,10.50
2023-04-03T07:06:57.304Z,10.30
2023-04-03T07:09:45.395Z,10.10
2023-04-03T07:12:38.666Z,10.00
2023-04-03T07:15:31.754Z,10.30
2023-04-03T07:18:25.632Z,10.60
2023-04-03T07:21:27.946Z,10.40
2023-04-03T07:24:28.929Z,10.00
2023-04-03T07:27:17.107Z,10.00
2023-04-03T07:30:05.739Z,9.60
2023-04-03T07:32:56.432Z,10.10
2023-04-03T07:35:47.809Z,10.20
2023-04-03T07:38:41.009Z,10.30
2023-04-03T07:41:30.080Z,10.90
2023-04-03T07:44:20.263Z,11.70
2023-04-03T07:47:07.956Z,10.50
2023-04-03T07:49:55.521Z,10.50
2023-04-03T07:52:43.521Z,10.80
2023-04-03T07:55:33.695Z,11.20
2023-04-03T07:58:25.925Z,11.00
2023-04-03T08:01:13.813Z,11.20
2023-04-03T08:04:01.730Z,11.30
2023-04-03T08:06:52.044Z,11.00
2023-04-03T08:09:42.493Z,11.40
2023-04-03T08:12:46.832Z,10.90
2023-04-03T08:15:40.669Z,11.60
2023-04-03T08:18:35.355Z,13.00
2023-04-03T08:21:23.968Z,11.30
2023-04-03T08:24:12.513Z,10.50
2023-04-03T08:27:01.810Z,11.10
2023-04-03T08:29:52.013Z,11.30
2023-04-03T08:32:43.253Z,12.10
2023-04-03T08:35:31.290Z,12.70
2023-04-03T08:38:22.067Z,12.50
2023-04-03T08:41:23.018Z,12.70
2023-04-03T08:44:50.450Z,12.30
2023-04-03T08:47:55.371Z,12.90
2023-04-03T08:50:54.991Z,13.30
2023-04-03T08:54:04.860Z,12.70
2023-04-03T08:56:56.490Z,13.00
2023-04-03T08:59:50.783Z,12.50
2023-04-03T09:02:48.802Z,12.40
2023-04-03T09:06:23.251Z,12.70
2023-04-03T09:09:42.886Z,13.10
2023-04-03T09:12:45.938Z,12.20
2023-04-03T09:15:39.041Z,12.00
2023-04-03T09:18:43.974Z,12.60
2023-04-03T09:21:43.947Z,13.20
2023-04-03T09:24:36.277Z,13.60
2023-04-03T09:27:24.154Z,13.40
2023-04-03T09:30:35.411Z,12.90
2023-04-03T09:33:28.196Z,13.10
2023-04-03T09:36:47.038Z,12.90
2023-04-03T09:40:12.337Z,13.70
2023-04-03T09:43:06.009Z,13.70
2023-04-03T09:45:56.735Z,13.30
2023-04-03T09:49:08.769Z,12.70
2023-04-03T09:52:27.414Z,12.30
2023-04-03T09:55:38.245Z,11.90
2023-04-03T09:58:50.560Z,11.30
2023-04-03T10:01:45.577Z,13.10
2023-04-03T10:04:43.241Z,13.50
2023-04-03T10:07:38.357Z,13.80
2023-04-03T10:10:27.079Z,14.50
2023-04-03T10:13:25.078Z,13.60
2023-04-03T10:16:54.935Z,11.70
2023-04-03T10:20:35.027Z,11.20
2023-04-03T10:23:29.565Z,9.60
2023-04-03T10:26:36.782Z,12.50
2023-04-03T10:29:42.142Z,12.90
2023-04-03T10:32:56.204Z,13.90
2023-04-03T10:36:21.013Z,14.00
2023-04-03T10:39:31.963Z,13.90
2023-04-03T10:42:57.317Z,13.50
2023-04-03T10:45:52.369Z,12.70
2023-04-03T10:49:10.841Z,13.10
2023-04-03T10:52:31.570Z,14.30
2023-04-03T10:55:49.896Z,12.40
2023-04-03T10:58:50.653Z,13.40
2023-04-03T11:01:42.720Z,14.40
2023-04-03T11:04:43.363Z,14.00
2023-04-03T11:07:41.178Z,12.90
2023-04-03T11:11:08.684Z,13.20
2023-04-03T11:14:04.246Z,13.50
2023-04-03T11:17:13.005Z,13.50
2023-04-03T11:20:19.202Z,13.50
2023-04-03T11:23:46.033Z,14.80
2023-04-03T11:26:45.596Z,13.80
2023-04-03T11:29:43.538Z,15.00
2023-04-03T11:32:52.642Z,15.00
2023-04-03T11:35:47.725Z,15.50
2023-04-03T11:38:48.224Z,16.50
2023-04-03T11:41:42.706Z,16.60
2023-04-03T11:44:49.442Z,14.50
2023-04-03T11:47:55.385Z,14.70
2023-04-03T11:50:49.711Z,14.80
2023-04-03T11:53:38.853Z,15.30
2023-04-03T11:56:29.462Z,14.20
2023-04-03T11:59:22.518Z,14.70
2023-04-03T12:02:53.713Z,15.40
2023-04-03T12:05:43.146Z,15.20
2023-04-03T12:08:35.900Z,12.50
2023-04-03T12:11:33.953Z,14.50
2023-04-03T12:14:27.041Z,15.20
2023-04-03T12:17:30.480Z,15.70
2023-04-03T12:20:55.793Z,15.30
2023-04-03T12:24:24.521Z,14.30
2023-04-03T12:27:42.410Z,14.70
2023-04-03T12:30:31.562Z,14.70
2023-04-03T12:33:29.787Z,14.00
2023-04-03T12:36:48.914Z,14.90
2023-04-03T12:40:14.111Z,15.40
2023-04-03T12:43:57.458Z,14.30
2023-04-03T12:46:48.754Z,15.70
2023-04-03T12:49:46.186Z,15.20
2023-04-03T12:52:39.234Z,16.40
2023-04-03T12:55:27.555Z,15.20
2023-04-03T12:58:27.413Z,15.00
2023-04-03T13:01:23.213Z,15.20
2023-04-03T13:04:15.302Z,16.00
2023-04-03T13:07:04.870Z,15.00
2023-04-03T13:10:10.148Z,14.20
2023-04-03T13:13:01.010Z,14.60
2023-04-03T13:15:52.616Z,14.60
2023-04-03T13:18:40.926Z,13.90
2023-04-03T13:21:35.081Z,15.30
2023-04-03T13:24:22.660Z,16.30
2023-04-03T13:27:13.786Z,15.70
2023-04-03T13:30:05.544Z,15.30
2023-04-03T13:32:55.001Z,16.20
2023-04-03T13:35:43.860Z,16.30
2023-04-03T13:38:35.136Z,15.30
2023-04-03T13:41:27.994Z,14.70
2023-04-03T13:44:27.852Z,14.10
2023-04-03T13:47:26.654Z,14.50
2023-04-03T13:50:24.140Z,16.00
2023-04-03T13:53:20.923Z,15.90
2023-04-03T13:56:17.522Z,14.30
2023-04-03T13:59:14.809Z,14.30
2023-04-03T14:02:06.464Z,14.20
2023-04-03T14:04:59.912Z,14.70
2023-04-03T14:07:48.393Z,15.10
2023-04-03T14:10:37.446Z,15.50
2023-04-03T14:13:26.203Z,16.50
2023-04-03T14:16:21.145Z,16.30
2023-04-03T14:19:18.354Z,15.70
2023-04-03T14:22:41.793Z,14.90
2023-04-03T14:25:34.045Z,15.80
2023-04-03T14:28:23.687Z,15.40
2023-04-03T14:31:13.804Z,15.00
2023-04-03T14:34:15.664Z,14.40
2023-04-03T14:37:09.452Z,13.80
2023-04-03T14:40:03.565Z,13.80
2023-04-03T14:42:51.902Z,14.30
2023-04-03T14:45:40.614Z,14.50
2023-04-03T14:48:34.744Z,14.70
2023-04-03T14:51:24.991Z,15.40
2023-04-03T14:54:18.277Z,14.60
2023-04-03T14:57:14.025Z,14.00
2023-04-03T15:00:03.666Z,13.40
2023-04-03T15:02:52.084Z,13.40
2023-04-03T15:05:40.165Z,13.50
2023-04-03T15:08:31.399Z,13.60
2023-04-03T15:11:22.534Z,13.80
2023-04-03T15:14:12.467Z,13.80
2023-04-03T15:17:00.749Z,13.80
2023-04-03T15:19:52.039Z,13.10
2023-04-03T15:22:39.895Z,14.20
2023-04-03T15:25:28.794Z,13.70
2023-04-03T15:28:46.849Z,13.70
2023-04-03T15:31:37.216Z,14.10
2023-04-03T15:34:25.179Z,13.40
2023-04-03T15:37:12.863Z,13.00
2023-04-03T15:40:02.580Z,13.10
2023-04-03T15:42:52.369Z,12.60
2023-04-03T15:45:44.616Z,12.60
2023-04-03T15:48:32.975Z,12.10
2023-04-03T15:51:20.692Z,11.90
2023-04-03T15:54:09.403Z,12.40
2023-04-03T15:56:58.070Z,13.00
2023-04-03T15:59:45.854Z,13.30
2023-04-03T16:02:34.556Z,12.40
2023-04-03T16:05:22.928Z,11.90
2023-04-03T16:08:13.981Z,11.80
2023-04-03T16:11:02.009Z,11.80
2023-04-03T16:13:49.523Z,11.80
2023-04-03T16:16:37.923Z,11.60
2023-04-03T16:19:26.399Z,11.90
2023-04-03T16:22:14.476Z,12.10
2023-04-03T16:25:10.911Z,11.30
2023-04-03T16:27:58.797Z,10.90
2023-04-03T16:30:48.406Z,10.60
2023-04-03T16:33:38.579Z,11.00
2023-04-03T16:36:27.080Z,10.90
2023-04-03T16:39:14.633Z,10.60
2023-04-03T16:42:02.610Z,10.60
2023-04-03T16:44:50.198Z,10.20
2023-04-03T16:47:38.331Z,9.90
2023-04-03T16:50:26.158Z,9.70
2023-04-03T16:53:14.016Z,9.60
2023-04-03T16:56:01.805Z,9.80
2023-04-03T16:58:49.477Z,9.80
2023-04-03T17:01:37.678Z,9.50
2023-04-03T17:04:25.535Z,9.30
2023-04-03T17:07:16.236Z,9.30
2023-04-03T17:10:07.494Z,9.00
2023-04-03T17:12:55.655Z,9.30
2023-04-03T17:15:43.431Z,8.60
2023-04-03T17:18:32.051Z,8.80
2023-04-03T17:21:20.666Z,8.30
2023-04-03T17:24:15.614Z,7.60
2023-04-03T17:27:04.330Z,7.20
2023-04-03T17:29:52.148Z,6.80
2023-04-03T17:32:39.897Z,6.70
2023-04-03T17:35:28.276Z,6.60
2023-04-03T17:38:19.168Z,6.50
2023-04-03T17:41:08.871Z,6.30
2023-04-03T17:43:57.269Z,6.10
2023-04-03T17:46:45.053Z,6.10
2023-04-03T17:49:33.746Z,6.00
2023-04-03T17:52:24.138Z,5.90
2023-04-03T17:55:13.614Z,5.90
2023-04-03T17:58:03.845Z,5.70
2023-04-03T18:00:51.812Z,5.60
2023-04-03T18:03:40.022Z,5.60
2023-04-03T18:06:32.256Z,5.40
2023-04-03T18:09:31.853Z,5.40
2023-04-03T18:12:19.928Z,5.30
2023-04-03T18:15:10.215Z,5.20
2023-04-03T18:17:58.201Z,5.10
2023-04-03T18:20:46.569Z,5.00
2023-04-03T18:23:36.702Z,4.90
2023-04-03T18:26:28.512Z,4.90
2023-04-03T18:29:19.420Z,4.80
2023-04-03T18:32:10.286Z,4.80
2023-04-03T18:34:59.951Z,4.70
2023-04-03T18:37:48.263Z,4.70
2023-04-03T18:40:43.676Z,4.60
2023-04-03T18:43:34.412Z,4.60
2023-04-03T18:46:24.737Z,4.50
2023-04-03T18:49:13.976Z,4.50
2023-04-03T18:52:01.816Z,4.40
2023-04-03T18:54:49.615Z,4.30
2023-04-03T18:57:37.383Z,4.30
2023-04-03T19:00:26.095Z,4.20
2023-04-03T19:03:14.194Z,4.20
2023-04-03T19:06:03.865Z,4.10
2023-04-03T19:08:51.841Z,4.10
2023-04-03T19:11:42.514Z,4.10
2023-04-03T19:14:32.631Z,4.00
2023-04-03T19:17:20.476Z,4.00
2023-04-03T19:20:10.068Z,3.90
2023-04-03T19:22:57.637Z,3.90
2023-04-03T19:25:45.362Z,3.90
2023-04-03T19:28:33.740Z,3.90
2023-04-03T19:31:22.347Z,3.80
2023-04-03T19:34:10.548Z,3.70
2023-04-03T19:36:58.653Z,3.60
2023-04-03T19:39:46.504Z,3.60
2023-04-03T19:42:36.694Z,3.70
2023-04-03T19:45:26.433Z,3.70
2023-04-03T19:48:14.216Z,3.60
2023-04-03T19:51:01.739Z,3.50
2023-04-03T19:53:49.259Z,3.50
2023-04-03T19:56:36.786Z,3.40
2023-04-03T19:59:24.692Z,3.30
2023-04-03T20:02:12.423Z,3.30
2023-04-03T20:05:00.062Z,3.30
2023-04-03T20:07:48.143Z,3.20
2023-04-03T20:10:40.206Z,3.20
2023-04-03T20:13:28.244Z,3.20
2023-04-03T20:16:15.788Z,3.10
2023-04-03T20:19:03.906Z,3.10
2023-04-03T20:21:51.741Z,3.10
2023-04-03T20:24:39.444Z,3.10
2023-04-03T20:27:26.920Z,3.00
2023-04-03T20:30:14.815Z,3.00
2023-04-03T20:33:08.118Z,3.00
2023-04-03T20:36:00.114Z,2.90
2023-04-03T20:38:54.438Z,2.90
2023-04-03T20:41:45.569Z,2.80
2023-04-03T20:44:39.723Z,2.80
2023-04-03T20:47:33.508Z,2.80
2023-04-03T20:50:34.176Z,2.70
2023-04-03T20:53:27.925Z,2.70
2023-04-03T20:56:19.619Z,2.60
2023-04-03T20:59:22.858Z,2.50
2023-04-03T21:02:15.641Z,2.50
2023-04-03T21:05:13.794Z,2.50
2023-04-03T21:08:44.941Z,2.50
2023-04-03T21:12:10.238Z,2.50
2023-04-03T21:15:35.783Z,2.50
2023-04-03T21:18:50.502Z,2.30
2023-04-03T21:21:48.259Z,2.30
2023-04-03T21:24:39.907Z,2.30
2023-04-03T21:27:32.813Z,2.30
2023-04-03T21:30:25.134Z,2.20
2023-04-03T21:33:14.652Z,2.30
2023-04-03T21:36:08.102Z,2.20
2023-04-03T21:42:04.128Z,2.10
2023-04-03T21:44:52.186Z,2.10
2023-04-03T21:47:40.086Z,2.00
2023-04-03T21:50:28.040Z,2.10
2023-04-03T21:53:16.935Z,2.00
2023-04-03T21:56:04.775Z,1.90
2023-04-03T21:58:52.355Z,2.00
2023-04-03T22:01:40.241Z,2.00
2023-04-03T22:04:28.383Z,1.90
2023-04-03T22:07:16.225Z,1.90
2023-04-03T22:10:05.056Z,1.80
2023-04-03T22:12:52.923Z,1.70
2023-04-03T22:15:43.681Z,1.70
2023-04-03T22:18:32.605Z,1.70
2023-04-03T22:21:21.049Z,1.50
2023-04-03T22:24:09.244Z,1.50
2023-04-03T22:26:56.807Z,1.50
2023-04-03T22:29:44.434Z,1.30
2023-04-03T22:32:34.294Z,1.30
2023-04-03T22:35:24.267Z,1.20
2023-04-03T22:38:14.983Z,1.20
2023-04-03T22:41:05.805Z,1.20
2023-04-03T22:43:53.311Z,1.20
2023-04-03T22:46:41.321Z,1.20
2023-04-03T22:49:29.026Z,1.10
2023-04-03T22:52:19.075Z,1.10
2023-04-03T22:55:18.645Z,1.10
2023-04-03T22:58:07.073Z,1.00
2023-04-03T23:01:08.044Z,0.90
2023-04-03T23:03:55.785Z,0.80
2023-04-03T23:06:43.627Z,0.70
2023-04-03T23:09:31.883Z,0.80
2023-04-03T23:12:19.461Z,0.80
2023-04-03T23:15:09.104Z,0.70
2023-04-03T23:17:56.778Z,0.70
2023-04-03T23:20:44.397Z,0.70
2023-04-03T23:23:32.073Z,0.60
2023-04-03T23:26:19.625Z,0.60
2023-04-03T23:29:07.960Z,0.60
2023-04-03T23:31:56.372Z,0.60
2023-04-03T23:34:46.318Z,0.70
2023-04-03T23:37:33.878Z,0.60
2023-04-03T23:40:21.449Z,0.60
2023-04-03T23:43:09.003Z,0.60
2023-04-03T23:45:56.616Z,0.70
2023-04-03T23:48:44.217Z,0.60
2023-04-03T23:51:31.807Z,0.60
2023-04-03T23:54:19.231Z,0.70
2023-04-03T23:57:06.945Z,0.70
2023-04-03T23:59:54.355Z,0.70
